Terminal Aerodrome Forecast
Issued by NWS

Home | Current Version | Previous Version | Text Only | Print | Product List | Glossary Off
Versions: 1 2 3 4 5 6 7 8 9 10 11 12 13 14 15 16 17 18 19 20 21 22 23 24 25 26 27 28

943
FTUS43 KTOP 201126
TAFFOE
TAF
KFOE 201126Z 2012/2112 34011KT 2SM BR OVC006
     FM201300 34012KT 3SM -FZRA BR VCTS BKN008 OVC012CB
     FM201500 33014KT P6SM OVC011
     FM201700 33014KT P6SM BKN022
     FM201900 34014KT P6SM SCT045
     FM210000 36012KT P6SM SCT100=

USA.gov is the U.S. government's official web portal to all federal, state and local government web resources and services.